Impacts TAF Board
For situational awareness. Not to be used for flight planning purposes.
IDs:

KLGA - New York/La Guardia, NY, US

Issued at 1734 UTC 22 Sep 2018
Updated at 1840 UTC 22 Sep 2018
Potential Impact None Slight Moderate High
Time<<23/19Z 23/20Z 23/21Z 23/22Z 23/23Z 24/00Z 24/01Z 24/02Z 24/03Z 24/04Z 24/05Z 24/06Z 24/07Z
Type PRVL PRVL PRVL PRVL PRVL
VIS >6 >6 >6 >6 >6
CIG 35 35 35 35 35
Cover BKN BKN BKN BKN BKN
FltCat VFR VFR VFR VFR VFR
WX -- -- -- -- --
WDir 70 70 70 70 120
WSpd 7 7 7 7 4
WGst -- -- -- -- --
Raw TAF
KLGA 221734Z 2218/2324 36011KT P6SM FEW040 SCT200
  FM230200 02010KT P6SM BKN200
  FM230600 04006KT P6SM SCT040 BKN200
  FM231600 07007KT P6SM BKN035
  FM232300 12004KT P6SM BKN035


METAR Board
Radar Display
Forecast Discussion
For situational awareness. Not to be used for flight planning purposes.